HomeShort term forecast

Short term forecast

Graphical weather forecast for the next 48 hours for Montreal:
Short term forecast
This weather forecast is automatically refreshed every 3 hours.

Hourly Experimental Forecast for the next 48 hours

Overall summary: Drizzle tonight and later tonight.

 Date & Hour   Temp   Feel   Baro   Hum   Speed & Bearing   Wind Gust   Precip.%   Precip.   Visibility   Cloud cover   Conditions 
 18/10/2019 - 00:00  7.8°C  5.7°C  998.5 hPa  84%  11.9 km/h   34.7 km/h  93%  0.03 mm/h  16.1km  71%  Drizzle 
 18/10/2019 - 01:00  8.1°C  6.0°C  998.9 hPa  82%  11.9 km/h   35.6 km/h  74%  0.07 mm/h  16.1km  64%  Drizzle 
 18/10/2019 - 02:00  8.4°C  6.1°C  999.7 hPa  82%  14.3 km/h   34.7 km/h  39%  0.09 mm/h  16.1km  50%  Possible Drizzle 
 18/10/2019 - 03:00  8.4°C  5.7°C  1000.6 hPa  83%  17.2 km/h   34.9 km/h  13%  0.05 mm/h  16.1km  68%  Mostly Cloudy 
 18/10/2019 - 04:00  7.5°C  4.5°C  1001.6 hPa  89%  17.3 km/h   33.0 km/h  8%  0.02 mm/h  16.1km  63%  Mostly Cloudy 
 18/10/2019 - 05:00  7.2°C  4.1°C  1002.8 hPa  89%  18.4 km/h   36.1 km/h  6%  0.01 mm/h  16.1km  69%  Mostly Cloudy 
 18/10/2019 - 06:00  8.0°C  4.7°C  1004.0 hPa  84%  22.2 km/h   39.6 km/h  0%  --  16.1km  75%  Mostly Cloudy 
 18/10/2019 - 07:00  7.9°C  4.5°C  1004.9 hPa  84%  23.0 km/h   41.6 km/h  0%  --  16.1km  64%  Mostly Cloudy 
 18/10/2019 - 08:00  7.9°C  4.4°C  1005.8 hPa  83%  23.1 km/h   42.4 km/h  7%  0.02 mm/h  16.1km  63%  Mostly Cloudy 
 18/10/2019 - 09:00  8.2°C  4.8°C  1006.7 hPa  81%  23.7 km/h   42.6 km/h  8%  0.04 mm/h  16.1km  59%  Mostly Cloudy 
 18/10/2019 - 10:00  8.8°C  5.5°C  1007.6 hPa  78%  24.1 km/h   40.7 km/h  7%  0.04 mm/h  16.1km  65%  Mostly Cloudy 
 18/10/2019 - 11:00  9.4°C  6.2°C  1008.3 hPa  75%  24.5 km/h   39.0 km/h  6%  0.03 mm/h  16.1km  72%  Mostly Cloudy 
 18/10/2019 - 12:00  9.6°C  6.4°C  1008.9 hPa  72%  24.7 km/h   38.0 km/h  5%  0.01 mm/h  16.1km  76%  Mostly Cloudy 
 18/10/2019 - 13:00  9.7°C  6.6°C  1009.4 hPa  71%  24.9 km/h   37.3 km/h  0%  --  16.1km  89%  Overcast 
 18/10/2019 - 14:00  10.7°C  10.7°C  1010.0 hPa  63%  25.2 km/h   36.9 km/h  4%  0.01 mm/h  16.1km  91%  Overcast 
 18/10/2019 - 15:00  10.5°C  10.5°C  1010.5 hPa  63%  24.2 km/h   35.7 km/h  4%  0.01 mm/h  16.1km  83%  Mostly Cloudy 
 18/10/2019 - 16:00  10.2°C  10.2°C  1011.2 hPa  62%  22.9 km/h   34.4 km/h  5%  0.01 mm/h  16.1km  73%  Mostly Cloudy 
 18/10/2019 - 17:00  9.7°C  6.9°C  1011.9 hPa  63%  21.3 km/h   33.6 km/h  0%  --  16.1km  63%  Mostly Cloudy 
 18/10/2019 - 18:00  9.0°C  6.2°C  1012.3 hPa  65%  19.3 km/h   33.5 km/h  0%  --  16.1km  51%  Mostly Cloudy 
 18/10/2019 - 19:00  7.8°C  5.0°C  1013.0 hPa  69%  16.8 km/h   33.6 km/h  0%  --  16.1km  40%  Partly Cloudy 
 18/10/2019 - 20:00  7.0°C  4.2°C  1013.8 hPa  73%  14.8 km/h   32.6 km/h  0%  --  16.1km  29%  Partly Cloudy 
 18/10/2019 - 21:00  6.3°C  3.6°C  1014.3 hPa  76%  13.8 km/h   29.5 km/h  0%  --  16.1km  21%  Partly Cloudy 
 18/10/2019 - 22:00  5.9°C  3.1°C  1014.6 hPa  77%  13.4 km/h   25.5 km/h  0%  --  16.1km  12%  Clear 
 18/10/2019 - 23:00  5.5°C  2.7°C  1015.0 hPa  79%  13.1 km/h   22.7 km/h  0%  --  16.1km  5%  Clear 
 19/10/2019 - 00:00  5.0°C  2.2°C  1015.4 hPa  80%  12.8 km/h   22.6 km/h  0%  --  16.1km  3%  Clear 
 19/10/2019 - 01:00  4.6°C  1.7°C  1016.4 hPa  82%  12.5 km/h   23.7 km/h  0%  --  16.1km  4%  Clear 
 19/10/2019 - 02:00  4.1°C  1.2°C  1016.7 hPa  83%  12.2 km/h   23.9 km/h  0%  --  16.1km  5%  Clear 
 19/10/2019 - 03:00  3.7°C  0.8°C  1017.0 hPa  83%  11.8 km/h   22.1 km/h  0%  --  16.1km  6%  Clear 
 19/10/2019 - 04:00  3.3°C  0.4°C  1016.8 hPa  83%  11.5 km/h   19.4 km/h  0%  --  16.1km  7%  Clear 
 19/10/2019 - 05:00  2.8°C  -0.2°C  1017.5 hPa  85%  11.1 km/h   16.9 km/h  0%  --  16.1km  9%  Clear 
 19/10/2019 - 06:00  2.2°C  -0.8°C  1017.4 hPa  86%  10.7 km/h   15.2 km/h  0%  --  16.1km  12%  Clear 
 19/10/2019 - 07:00  1.7°C  -1.3°C  1018.2 hPa  87%  10.2 km/h   13.6 km/h  0%  --  16.1km  17%  Partly Cloudy 
 19/10/2019 - 08:00  1.8°C  -1.1°C  1018.5 hPa  88%  9.7 km/h   12.4 km/h  0%  --  16.1km  21%  Partly Cloudy 
 19/10/2019 - 09:00  3.0°C  0.5°C  1018.7 hPa  86%  9.1 km/h   11.1 km/h  0%  --  16.1km  24%  Partly Cloudy 
 19/10/2019 - 10:00  4.7°C  2.7°C  1019.3 hPa  79%  8.6 km/h   10.0 km/h  0%  --  16.1km  26%  Partly Cloudy 
 19/10/2019 - 11:00  6.4°C  4.7°C  1019.3 hPa  71%  8.5 km/h   9.5 km/h  0%  --  16.1km  26%  Partly Cloudy 
 19/10/2019 - 12:00  7.5°C  5.8°C  1019.0 hPa  67%  9.4 km/h   10.6 km/h  0%  --  16.1km  24%  Partly Cloudy 
 19/10/2019 - 13:00  8.5°C  6.7°C  1018.6 hPa  63%  10.7 km/h   12.5 km/h  0%  --  16.1km  20%  Partly Cloudy 
 19/10/2019 - 14:00  9.2°C  7.4°C  1018.1 hPa  62%  11.6 km/h   13.8 km/h  0%  --  16.1km  18%  Partly Cloudy 
 19/10/2019 - 15:00  9.7°C  8.0°C  1017.8 hPa  61%  11.6 km/h   14.1 km/h  0%  --  16.1km  21%  Partly Cloudy 
 19/10/2019 - 16:00  9.9°C  8.3°C  1017.3 hPa  61%  11.1 km/h   13.8 km/h  0%  --  16.1km  25%  Partly Cloudy 
 19/10/2019 - 17:00  9.8°C  8.3°C  1017.2 hPa  62%  10.2 km/h   13.0 km/h  0%  --  16.1km  28%  Partly Cloudy 
 19/10/2019 - 18:00  9.1°C  7.8°C  1017.5 hPa  66%  8.7 km/h   11.5 km/h  0%  --  16.1km  27%  Partly Cloudy 
 19/10/2019 - 19:00  8.4°C  7.4°C  1017.8 hPa  71%  6.8 km/h   9.3 km/h  0%  --  16.1km  25%  Partly Cloudy 
 19/10/2019 - 20:00  7.6°C  7.0°C  1018.1 hPa  76%  5.3 km/h   7.7 km/h  0%  --  16.1km  24%  Partly Cloudy 
 19/10/2019 - 21:00  7.2°C  7.2°C  1018.2 hPa  78%  4.6 km/h   7.0 km/h  0%  --  16.1km  24%  Partly Cloudy 
 19/10/2019 - 22:00  6.8°C  6.8°C  1018.5 hPa  79%  4.4 km/h   6.7 km/h  0%  --  16.1km  26%  Partly Cloudy 
 19/10/2019 - 23:00  6.4°C  6.4°C  1018.6 hPa  80%  4.2 km/h   6.3 km/h  2%  0.01 mm/h  16.1km  27%  Partly Cloudy 
Test

 

Past weather and reports

Past weatherFind in this section the past weather conditions, weather archive, graphics, reports and statistics.

Current conditions

Current weather condition for MontrealAll you need to know about the current weather conditions for Montreal. Weather data is updated every 10 minutes.

Weather forecast

Current Montreal weatherSince 2004, celinium.com website has provided accurate weather forecast for Montreal's island.